createdAt,value
2022-10-01T00:00:00.605Z,11.80
2022-10-01T00:03:03.948Z,11.82
2022-10-01T00:06:13.856Z,11.83
2022-10-01T00:09:17.687Z,11.79
2022-10-01T00:12:21.628Z,11.76
2022-10-01T00:15:26.419Z,11.72
2022-10-01T00:18:31.300Z,11.67
2022-10-01T00:21:35.475Z,11.67
2022-10-01T00:24:38.663Z,11.66
2022-10-01T00:27:46.455Z,11.66
2022-10-01T00:30:49.268Z,11.58
2022-10-01T00:33:53.937Z,11.49
2022-10-01T00:36:57.047Z,11.40
2022-10-01T00:39:59.845Z,11.32
2022-10-01T00:43:20.056Z,11.29
2022-10-01T00:46:45.776Z,11.24
2022-10-01T00:49:50.950Z,11.31
2022-10-01T00:53:01.462Z,11.35
2022-10-01T00:56:05.658Z,11.33
2022-10-01T00:59:09.357Z,11.30
2022-10-01T01:02:12.659Z,11.22
2022-10-01T01:05:15.812Z,11.17
2022-10-01T01:08:19.099Z,11.17
2022-10-01T01:11:53.252Z,11.13
2022-10-01T01:15:26.050Z,11.10
2022-10-01T01:18:59.916Z,11.07
2022-10-01T01:22:07.837Z,11.12
2022-10-01T01:25:22.522Z,11.00
2022-10-01T01:28:33.964Z,10.94
2022-10-01T01:31:46.485Z,10.79
2022-10-01T01:34:52.962Z,10.82
2022-10-01T01:38:02.318Z,10.83
2022-10-01T01:41:07.005Z,10.78
2022-10-01T01:44:12.774Z,10.79
2022-10-01T01:47:22.157Z,10.73
2022-10-01T01:50:29.123Z,10.64
2022-10-01T01:53:32.361Z,10.67
2022-10-01T01:56:35.996Z,10.66
2022-10-01T01:59:40.884Z,10.70
2022-10-01T02:02:50.426Z,10.69
2022-10-01T02:06:12.419Z,10.61
2022-10-01T02:09:42.997Z,10.68
2022-10-01T02:13:17.921Z,10.63
2022-10-01T02:16:33.972Z,10.53
2022-10-01T02:20:10.229Z,10.52
2022-10-01T02:23:18.317Z,10.55
2022-10-01T02:26:22.850Z,10.53
2022-10-01T02:29:25.702Z,10.45
2022-10-01T02:32:31.613Z,10.38
2022-10-01T02:35:36.814Z,10.37
2022-10-01T02:38:44.859Z,10.31
2022-10-01T02:41:51.076Z,10.33
2022-10-01T02:44:57.252Z,10.37
2022-10-01T02:48:05.073Z,10.38
2022-10-01T02:51:32.569Z,10.40
2022-10-01T02:55:17.733Z,10.40
2022-10-01T02:58:21.223Z,10.39
2022-10-01T03:01:24.178Z,10.34
2022-10-01T03:04:27.071Z,10.35
2022-10-01T03:07:32.266Z,10.29
2022-10-01T03:10:35.451Z,10.19
2022-10-01T03:13:38.388Z,10.17
2022-10-01T03:16:41.195Z,10.11
2022-10-01T03:19:44.112Z,10.12
2022-10-01T03:22:47.671Z,10.15
2022-10-01T03:25:55.138Z,10.16
2022-10-01T03:28:58.043Z,10.15
2022-10-01T03:32:01.266Z,10.11
2022-10-01T03:35:04.927Z,10.11
2022-10-01T03:38:08.486Z,10.14
2022-10-01T03:41:11.690Z,9.98
2022-10-01T03:44:14.492Z,10.01
2022-10-01T03:47:17.390Z,10.06
2022-10-01T03:50:22.201Z,10.04
2022-10-01T03:53:27.507Z,10.05
2022-10-01T03:56:30.855Z,9.94
2022-10-01T03:59:33.628Z,9.79
2022-10-01T04:02:42.857Z,9.82
2022-10-01T04:05:46.401Z,9.86
2022-10-01T04:08:49.276Z,9.89
2022-10-01T04:12:42.230Z,9.91
2022-10-01T04:15:45.175Z,9.91
2022-10-01T04:18:48.107Z,9.95
2022-10-01T04:21:52.203Z,10.00
2022-10-01T04:24:55.191Z,9.97
2022-10-01T04:28:03.334Z,9.95
2022-10-01T04:31:24.637Z,9.95
2022-10-01T04:34:48.002Z,9.95
2022-10-01T04:38:05.116Z,9.92
2022-10-01T04:41:09.453Z,9.97
2022-10-01T04:44:12.383Z,9.97
2022-10-01T04:47:21.717Z,10.00
2022-10-01T04:50:26.648Z,10.04
2022-10-01T04:53:29.896Z,10.00
2022-10-01T04:56:32.742Z,9.97
2022-10-01T04:59:35.641Z,10.01
2022-10-01T05:02:38.707Z,10.06
2022-10-01T05:05:41.564Z,10.12
2022-10-01T05:08:44.409Z,10.20
2022-10-01T05:11:47.401Z,10.23
2022-10-01T05:14:51.035Z,10.14
2022-10-01T05:17:53.933Z,10.10
2022-10-01T05:20:56.764Z,10.03
2022-10-01T05:23:59.661Z,10.02
2022-10-01T05:27:02.469Z,9.99
2022-10-01T05:30:06.599Z,9.98
2022-10-01T05:33:09.441Z,9.94
2022-10-01T05:36:13.306Z,9.93
2022-10-01T05:39:16.152Z,9.89
2022-10-01T05:42:18.973Z,9.83
2022-10-01T05:45:23.051Z,9.84
2022-10-01T05:48:26.098Z,9.86
2022-10-01T05:51:29.725Z,9.92
2022-10-01T05:54:32.492Z,9.97
2022-10-01T05:57:35.712Z,10.01
2022-10-01T06:00:40.341Z,9.99
2022-10-01T06:03:44.425Z,9.98
2022-10-01T06:06:47.438Z,10.02
2022-10-01T06:09:50.663Z,10.09
2022-10-01T06:13:01.259Z,10.18
2022-10-01T06:16:04.550Z,10.26
2022-10-01T06:19:08.706Z,10.28
2022-10-01T06:22:11.774Z,10.36
2022-10-01T06:25:15.858Z,10.45
2022-10-01T06:28:19.538Z,10.62
2022-10-01T06:31:23.082Z,10.73
2022-10-01T06:34:26.670Z,10.67
2022-10-01T06:37:29.863Z,10.70
2022-10-01T06:40:32.650Z,10.78
2022-10-01T06:43:35.507Z,10.87
2022-10-01T06:46:38.230Z,10.90
2022-10-01T06:49:44.553Z,10.91
2022-10-01T06:52:51.313Z,10.94
2022-10-01T06:55:54.575Z,11.00
2022-10-01T06:58:57.591Z,10.95
2022-10-01T07:02:00.584Z,10.88
2022-10-01T07:05:04.082Z,10.83
2022-10-01T07:08:07.818Z,10.87
2022-10-01T07:11:10.790Z,10.93
2022-10-01T07:14:13.666Z,10.92
2022-10-01T07:17:16.605Z,10.95
2022-10-01T07:20:21.354Z,10.90
2022-10-01T07:23:24.816Z,10.89
2022-10-01T07:26:27.717Z,10.88
2022-10-01T07:29:31.443Z,10.90
2022-10-01T07:32:35.529Z,10.94
2022-10-01T07:35:38.429Z,11.08
2022-10-01T07:38:43.700Z,11.16
2022-10-01T07:41:51.618Z,11.13
2022-10-01T07:44:58.361Z,11.18
2022-10-01T07:48:04.615Z,11.22
2022-10-01T07:51:08.056Z,11.29
2022-10-01T07:54:11.888Z,11.28
2022-10-01T07:57:16.413Z,11.29
2022-10-01T08:00:20.689Z,11.27
2022-10-01T08:03:26.096Z,11.35
2022-10-01T08:06:29.176Z,11.43
2022-10-01T08:09:32.236Z,11.52
2022-10-01T08:12:39.886Z,11.60
2022-10-01T08:15:46.019Z,11.66
2022-10-01T08:18:52.860Z,11.66
2022-10-01T08:21:56.119Z,11.75
2022-10-01T08:24:59.856Z,11.84
2022-10-01T08:28:03.735Z,11.90
2022-10-01T08:31:07.795Z,11.95
2022-10-01T08:34:10.652Z,11.98
2022-10-01T08:37:15.527Z,11.94
2022-10-01T08:40:21.815Z,12.00
2022-10-01T08:43:38.157Z,12.05
2022-10-01T08:46:41.824Z,12.06
2022-10-01T08:49:53.812Z,12.14
2022-10-01T08:53:01.812Z,12.18
2022-10-01T08:56:07.016Z,12.26
2022-10-01T08:59:51.932Z,12.32
2022-10-01T09:02:58.837Z,12.40
2022-10-01T09:06:27.822Z,12.38
2022-10-01T09:09:56.537Z,12.41
2022-10-01T09:13:27.893Z,12.38
2022-10-01T09:17:11.045Z,12.40
2022-10-01T09:20:21.581Z,12.46
2022-10-01T09:24:04.344Z,12.50
2022-10-01T09:27:25.290Z,12.50
2022-10-01T09:30:30.282Z,12.53
2022-10-01T09:33:43.725Z,12.59
2022-10-01T09:37:25.793Z,12.61
2022-10-01T09:40:55.204Z,12.62
2022-10-01T09:43:58.038Z,12.72
2022-10-01T09:47:00.906Z,12.79
2022-10-01T09:50:06.677Z,12.82
2022-10-01T09:53:23.074Z,12.86
2022-10-01T09:56:33.816Z,12.87
2022-10-01T10:00:03.836Z,12.87
2022-10-01T10:03:07.497Z,12.91
2022-10-01T10:06:10.366Z,12.94
2022-10-01T10:09:29.489Z,12.89
2022-10-01T10:12:32.387Z,12.96
2022-10-01T10:15:35.945Z,12.98
2022-10-01T10:18:41.659Z,12.99
2022-10-01T10:22:00.792Z,13.03
2022-10-01T10:25:14.478Z,13.09
2022-10-01T10:28:23.839Z,13.09
2022-10-01T10:31:30.192Z,13.12
2022-10-01T10:34:39.020Z,13.20
2022-10-01T10:37:51.655Z,13.14
2022-10-01T10:40:54.541Z,13.19
2022-10-01T10:44:01.142Z,13.25
2022-10-01T10:47:09.209Z,13.30
2022-10-01T10:50:30.101Z,13.31
2022-10-01T10:53:46.508Z,13.33
2022-10-01T10:56:54.495Z,13.42
2022-10-01T11:00:00.974Z,13.49
2022-10-01T11:03:06.399Z,13.52
2022-10-01T11:06:12.460Z,13.54
2022-10-01T11:09:18.823Z,13.61
2022-10-01T11:12:56.928Z,13.69
2022-10-01T11:16:26.969Z,13.72
2022-10-01T11:19:48.238Z,13.71
2022-10-01T11:23:24.895Z,13.76
2022-10-01T11:26:48.854Z,13.81
2022-10-01T11:30:09.869Z,13.89
2022-10-01T11:33:27.797Z,13.94
2022-10-01T11:37:05.158Z,13.90
2022-10-01T11:40:25.663Z,14.02
2022-10-01T11:43:37.595Z,14.05
2022-10-01T11:46:59.205Z,14.05
2022-10-01T11:50:15.102Z,14.03
2022-10-01T11:53:33.488Z,13.90
2022-10-01T11:57:04.183Z,13.96
2022-10-01T12:00:11.098Z,13.90
2022-10-01T12:03:23.241Z,13.94
2022-10-01T12:06:34.563Z,13.85
2022-10-01T12:09:53.764Z,13.85
2022-10-01T12:13:10.234Z,13.66
2022-10-01T12:16:19.897Z,13.57
2022-10-01T12:19:36.781Z,13.61
2022-10-01T12:22:44.861Z,13.47
2022-10-01T12:26:13.342Z,13.50
2022-10-01T12:29:36.301Z,13.46
2022-10-01T12:33:16.443Z,13.43
2022-10-01T12:36:29.026Z,13.43
2022-10-01T12:40:10.780Z,13.33
2022-10-01T12:43:28.542Z,13.22
2022-10-01T12:46:50.520Z,13.18
2022-10-01T12:50:15.877Z,13.13
2022-10-01T12:53:28.297Z,13.01
2022-10-01T12:56:39.259Z,12.97
2022-10-01T12:59:52.293Z,12.87
2022-10-01T13:03:22.829Z,12.79
2022-10-01T13:06:44.131Z,12.77
2022-10-01T13:10:05.133Z,12.68
2022-10-01T13:13:17.748Z,12.58
2022-10-01T13:16:37.817Z,12.58
2022-10-01T13:20:12.045Z,12.60
2022-10-01T13:23:23.744Z,12.61
2022-10-01T13:26:29.693Z,12.56
2022-10-01T13:29:39.012Z,12.57
2022-10-01T13:32:58.555Z,12.49
2022-10-01T13:36:03.386Z,12.29
2022-10-01T13:39:06.169Z,12.28
2022-10-01T13:42:46.136Z,12.37
2022-10-01T13:45:52.407Z,12.28
2022-10-01T13:49:07.759Z,12.35
2022-10-01T13:52:20.337Z,12.32
2022-10-01T13:55:30.067Z,12.33
2022-10-01T13:58:38.674Z,12.32
2022-10-01T14:01:42.794Z,12.35
2022-10-01T14:04:46.966Z,12.31
2022-10-01T14:07:56.788Z,12.22
2022-10-01T14:11:29.548Z,12.17
2022-10-01T14:15:01.864Z,12.13
2022-10-01T14:18:12.494Z,12.08
2022-10-01T14:21:34.245Z,12.11
2022-10-01T14:24:48.949Z,12.22
2022-10-01T14:28:19.550Z,12.25
2022-10-01T14:31:40.967Z,12.18
2022-10-01T14:35:01.020Z,12.14
2022-10-01T14:38:11.869Z,12.11
2022-10-01T14:41:19.025Z,12.14
2022-10-01T14:44:29.439Z,12.22
2022-10-01T14:47:35.840Z,12.19
2022-10-01T14:50:40.017Z,12.21
2022-10-01T14:53:43.863Z,12.10
2022-10-01T14:56:47.103Z,12.00
2022-10-01T14:59:50.130Z,11.86
2022-10-01T15:03:01.967Z,11.80
2022-10-01T15:06:12.293Z,11.73
2022-10-01T15:09:19.068Z,11.75
2022-10-01T15:12:23.435Z,11.85
2022-10-01T15:15:34.850Z,11.86
2022-10-01T15:18:38.754Z,11.81
2022-10-01T15:21:47.713Z,11.76
2022-10-01T15:24:52.746Z,11.67
2022-10-01T15:27:56.785Z,11.76
2022-10-01T15:31:03.475Z,11.79
2022-10-01T15:34:11.201Z,11.72
2022-10-01T15:37:19.914Z,11.68
2022-10-01T15:40:22.786Z,11.66
2022-10-01T15:43:27.743Z,11.64
2022-10-01T15:46:33.745Z,11.57
2022-10-01T15:49:36.917Z,11.54
2022-10-01T15:52:51.664Z,11.51
2022-10-01T15:56:00.825Z,11.47
2022-10-01T15:59:16.433Z,11.57
2022-10-01T16:02:26.197Z,11.59
2022-10-01T16:05:45.024Z,11.53
2022-10-01T16:09:12.093Z,11.65
2022-10-01T16:12:23.081Z,11.60
2022-10-01T16:15:29.525Z,11.58
2022-10-01T16:18:37.511Z,11.51
2022-10-01T16:21:43.533Z,11.57
2022-10-01T16:24:57.852Z,11.63
2022-10-01T16:28:04.206Z,11.53
2022-10-01T16:31:07.552Z,11.48
2022-10-01T16:34:15.830Z,11.54
2022-10-01T16:37:18.826Z,11.50
2022-10-01T16:40:30.910Z,11.47
2022-10-01T16:43:33.681Z,11.44
2022-10-01T16:46:36.839Z,11.43
2022-10-01T16:49:41.965Z,11.48
2022-10-01T16:52:45.355Z,11.42
2022-10-01T16:55:48.215Z,11.37
2022-10-01T16:58:52.790Z,11.47
2022-10-01T17:01:56.442Z,11.44
2022-10-01T17:05:01.003Z,11.41
2022-10-01T17:08:11.350Z,11.38
2022-10-01T17:11:14.911Z,11.30
2022-10-01T17:14:21.306Z,11.34
2022-10-01T17:17:24.261Z,11.35
2022-10-01T17:20:30.193Z,11.24
2022-10-01T17:23:35.814Z,11.21
2022-10-01T17:26:40.876Z,11.16
2022-10-01T17:29:43.712Z,11.26
2022-10-01T17:32:46.830Z,11.30
2022-10-01T17:35:52.213Z,11.22
2022-10-01T17:38:55.092Z,11.26
2022-10-01T17:41:58.823Z,11.40
2022-10-01T17:45:03.902Z,11.33
2022-10-01T17:48:06.862Z,11.33
2022-10-01T17:51:13.645Z,11.32
2022-10-01T17:54:16.665Z,11.38
2022-10-01T17:57:19.700Z,11.44
2022-10-01T18:00:22.829Z,11.40
2022-10-01T18:03:25.646Z,11.33
2022-10-01T18:06:29.713Z,11.39
2022-10-01T18:09:32.783Z,11.31
2022-10-01T18:12:35.724Z,11.29
2022-10-01T18:15:38.513Z,11.22
2022-10-01T18:22:13.600Z,11.10
2022-10-01T18:25:19.489Z,11.15
2022-10-01T18:28:23.677Z,11.15
2022-10-01T18:31:36.524Z,11.18
2022-10-01T18:34:50.251Z,11.20
2022-10-01T18:38:00.046Z,11.18
2022-10-01T18:41:11.212Z,11.14
2022-10-01T18:44:20.298Z,11.19
2022-10-01T18:47:41.806Z,11.15
2022-10-01T18:51:21.932Z,11.14
2022-10-01T18:54:45.254Z,11.23
2022-10-01T18:58:01.349Z,11.27
2022-10-01T19:01:35.458Z,11.27
2022-10-01T19:04:54.323Z,11.21
2022-10-01T19:08:23.678Z,11.25
2022-10-01T19:11:50.320Z,11.29
2022-10-01T19:15:13.035Z,11.27
2022-10-01T19:18:57.673Z,11.22
2022-10-01T19:22:01.766Z,11.16
2022-10-01T19:25:29.896Z,11.16
2022-10-01T19:28:57.411Z,11.15
2022-10-01T19:32:03.984Z,11.15
2022-10-01T19:35:19.319Z,11.13
2022-10-01T19:38:32.894Z,11.15
2022-10-01T19:41:47.338Z,11.12
2022-10-01T19:44:58.713Z,11.12
2022-10-01T19:48:18.543Z,11.06
2022-10-01T19:51:25.102Z,11.07
2022-10-01T19:54:34.081Z,11.02
2022-10-01T19:57:41.005Z,11.08
2022-10-01T20:01:46.140Z,11.17
2022-10-01T20:04:55.167Z,11.14
2022-10-01T20:08:03.920Z,11.16
2022-10-01T20:11:23.616Z,11.22
2022-10-01T20:14:51.095Z,11.23
2022-10-01T20:18:13.353Z,11.30
2022-10-01T20:21:42.529Z,11.32
2022-10-01T20:25:00.345Z,11.32
2022-10-01T20:28:24.975Z,11.25
2022-10-01T20:31:37.165Z,11.29
2022-10-01T20:35:22.819Z,11.30
2022-10-01T20:38:32.443Z,11.17
2022-10-01T20:41:44.043Z,11.18
2022-10-01T20:44:47.348Z,11.14
2022-10-01T20:48:22.695Z,11.15
2022-10-01T20:51:36.209Z,11.13
2022-10-01T20:54:48.111Z,11.17
2022-10-01T20:57:54.659Z,11.09
2022-10-01T21:01:04.159Z,11.13
2022-10-01T21:04:13.350Z,11.06
2022-10-01T21:07:25.517Z,11.14
2022-10-01T21:10:37.338Z,11.12
2022-10-01T21:13:45.117Z,11.05
2022-10-01T21:17:06.816Z,11.01
2022-10-01T21:20:37.377Z,10.98
2022-10-01T21:24:18.645Z,11.04
2022-10-01T21:27:36.492Z,11.03
2022-10-01T21:30:49.211Z,10.96
2022-10-01T21:33:58.185Z,11.01
2022-10-01T21:37:46.981Z,11.01
2022-10-01T21:41:14.015Z,11.00
2022-10-01T21:44:45.048Z,11.03
2022-10-01T21:47:54.116Z,11.02
2022-10-01T21:51:07.548Z,11.08
2022-10-01T21:54:29.049Z,11.12
2022-10-01T21:58:24.456Z,11.18
2022-10-01T22:01:54.104Z,11.20
2022-10-01T22:05:05.729Z,11.16
2022-10-01T22:08:28.012Z,11.18
2022-10-01T22:11:38.574Z,11.25
2022-10-01T22:14:44.476Z,11.22
2022-10-01T22:17:50.060Z,11.26
2022-10-01T22:20:54.533Z,11.25
2022-10-01T22:24:05.964Z,11.27
2022-10-01T22:27:27.880Z,11.30
2022-10-01T22:30:35.100Z,11.26
2022-10-01T22:33:45.386Z,11.24
2022-10-01T22:36:55.912Z,11.14
2022-10-01T22:40:08.979Z,11.15
2022-10-01T22:43:13.902Z,11.17
2022-10-01T22:46:26.379Z,11.22
2022-10-01T22:49:44.252Z,11.17
2022-10-01T22:53:29.521Z,11.17
2022-10-01T22:56:49.495Z,11.19
2022-10-01T23:00:04.296Z,11.22
2022-10-01T23:03:27.739Z,11.24
2022-10-01T23:06:41.822Z,11.27
2022-10-01T23:10:04.287Z,11.29
2022-10-01T23:13:09.896Z,11.31
2022-10-01T23:16:55.022Z,11.31
2022-10-01T23:20:05.564Z,11.30
2022-10-01T23:23:29.941Z,11.35
2022-10-01T23:26:46.385Z,11.38
2022-10-01T23:30:02.598Z,11.32
2022-10-01T23:33:11.405Z,11.32
2022-10-01T23:36:32.784Z,11.29
2022-10-01T23:39:55.591Z,11.33
2022-10-01T23:43:19.359Z,11.23
2022-10-01T23:46:27.064Z,11.20
2022-10-01T23:49:39.222Z,11.22
2022-10-01T23:52:49.951Z,11.24
2022-10-01T23:56:34.639Z,11.24
2022-10-01T23:59:47.505Z,11.25
